Time;durP1;ratioP1;P1;durP2;ratioP2;P2;SDS_P1;SDS_P2;PMS_P1;PMS_P2;Temp;Humidity;BMP_temperature;BMP_pressure;BME280_temperature;BME280_humidity;BME280_pressure;Samples;Min_cycle;Max_cycle;Signal;HPM_P1;HPM_P2
2022/08/25 00:02:14;;;;;;;12.13;10.35;;;19.20;99.90;;;;;;5072694;28;20040;-65
2022/08/25 00:04:40;;;;;;;12.30;10.48;;;19.20;99.90;;;;;;5062529;28;20037;-65
2022/08/25 00:07:06;;;;;;;10.02;9.13;;;19.20;99.90;;;;;;5057477;28;20045;-65
2022/08/25 00:09:34;;;;;;;11.48;9.93;;;19.00;99.90;;;;;;5069002;28;20048;-65
2022/08/25 00:12:00;;;;;;;11.40;9.18;;;18.90;99.90;;;;;;5078493;28;20041;-65
2022/08/25 00:14:32;;;;;;;11.68;10.48;;;18.90;99.90;;;;;;5063784;28;20132;-65
2022/08/25 00:16:58;;;;;;;11.90;10.77;;;18.90;99.90;;;;;;5075941;28;20445;-65
2022/08/25 00:19:29;;;;;;;11.88;9.68;;;18.90;99.90;;;;;;5062831;28;20050;-65
2022/08/25 00:21:55;;;;;;;12.63;9.65;;;18.90;99.90;;;;;;5074093;28;20064;-65
2022/08/25 00:24:21;;;;;;;10.52;9.23;;;18.90;99.90;;;;;;5060876;28;20048;-65
2022/08/25 00:26:50;;;;;;;11.20;10.02;;;18.80;99.90;;;;;;5057274;28;20041;-65
2022/08/25 00:29:16;;;;;;;10.80;9.63;;;18.70;99.90;;;;;;5076100;28;20041;-65
2022/08/25 00:31:43;;;;;;;12.00;10.80;;;18.60;99.90;;;;;;5061097;28;20292;-64
2022/08/25 00:34:13;;;;;;;21.20;11.20;;;18.60;99.90;;;;;;5053401;28;20059;-65
2022/08/25 00:36:39;;;;;;;11.13;9.80;;;18.70;99.90;;;;;;5079481;28;20049;-65
2022/08/25 00:39:07;;;;;;;12.50;9.38;;;18.80;99.90;;;;;;5062050;28;20052;-65
2022/08/25 00:41:34;;;;;;;10.43;9.38;;;18.80;99.90;;;;;;5055300;28;20064;-65
2022/08/25 00:44:03;;;;;;;12.60;9.35;;;18.90;99.90;;;;;;5093891;28;20041;-65
2022/08/25 00:46:32;;;;;;;9.80;8.80;;;18.90;99.90;;;;;;5059965;28;20044;-64
2022/08/25 00:49:03;;;;;;;10.35;9.32;;;18.80;99.90;;;;;;5079806;28;20044;-65
2022/08/25 00:51:38;;;;;;;10.32;9.32;;;18.80;99.90;;;;;;5059235;28;20048;-65
2022/08/25 00:54:06;;;;;;;9.55;8.52;;;18.70;99.90;;;;;;5075987;28;20086;-65
2022/08/25 00:56:33;;;;;;;12.18;9.32;;;18.60;99.90;;;;;;5061145;28;20056;-65
2022/08/25 00:59:00;;;;;;;12.38;8.23;;;18.60;99.90;;;;;;5065789;28;20080;-65
2022/08/25 01:01:26;;;;;;;10.13;8.70;;;18.60;99.90;;;;;;5079189;28;20049;-65
2022/08/25 01:03:52;;;;;;;9.75;8.10;;;18.60;99.90;;;;;;5060281;28;20037;-65
2022/08/25 01:06:18;;;;;;;10.05;8.95;;;18.60;99.90;;;;;;5055909;28;20460;-65
2022/08/25 01:08:44;;;;;;;10.75;8.40;;;18.60;99.90;;;;;;5064133;28;20127;-65
2022/08/25 01:11:11;;;;;;;9.80;8.70;;;18.50;99.90;;;;;;5055190;28;20072;-65
2022/08/25 01:13:42;;;;;;;13.75;9.15;;;18.50;99.90;;;;;;5060817;28;20064;-65
2022/08/25 01:16:08;;;;;;;11.68;8.60;;;18.40;99.90;;;;;;5054418;28;20053;-64
2022/08/25 01:18:55;;;;;;;10.63;8.90;;;18.40;99.90;;;;;;5059860;28;20090;-65
2022/08/25 01:21:25;;;;;;;11.18;9.50;;;18.30;99.90;;;;;;5072882;28;20079;-65
2022/08/25 01:23:51;;;;;;;13.82;9.10;;;18.20;99.90;;;;;;5051935;28;20079;-65
2022/08/25 01:26:27;;;;;;;12.02;8.40;;;18.20;99.90;;;;;;5058691;28;20100;-65
2022/08/25 01:31:40;;;;;;;10.82;9.20;;;18.20;99.90;;;;;;5070846;28;20053;-65
2022/08/25 01:34:13;;;;;;;11.52;9.25;;;18.20;99.90;;;;;;5044521;28;20037;-65
2022/08/25 01:36:42;;;;;;;9.60;8.68;;;18.20;99.90;;;;;;5059644;28;20055;-65
2022/08/25 01:39:08;;;;;;;10.82;8.85;;;18.20;99.90;;;;;;5058301;28;20493;-65
2022/08/25 01:41:49;;;;;;;10.68;9.60;;;18.30;99.90;;;;;;5061547;28;20063;-65
2022/08/25 01:44:16;;;;;;;10.23;8.65;;;18.30;99.90;;;;;;5052732;28;20044;-65
2022/08/25 01:46:42;;;;;;;14.20;9.43;;;18.40;99.90;;;;;;5064893;28;20566;-65
2022/08/25 01:49:09;;;;;;;11.80;9.60;;;18.40;99.90;;;;;;5061676;28;20045;-65
2022/08/25 01:51:45;;;;;;;11.45;9.88;;;18.40;99.90;;;;;;5064982;28;20108;-65
2022/08/25 01:54:11;;;;;;;12.15;11.02;;;18.50;99.90;;;;;;5076729;28;20132;-65
2022/08/25 01:56:37;;;;;;;13.63;10.20;;;18.40;99.90;;;;;;5053443;28;20056;-65
2022/08/25 01:59:03;;;;;;;11.02;9.85;;;18.40;99.90;;;;;;5054769;28;20432;-65
2022/08/25 02:01:29;;;;;;;11.32;10.23;;;18.40;99.90;;;;;;5060813;28;20040;-64
2022/08/25 02:03:56;;;;;;;12.10;10.90;;;18.40;99.90;;;;;;5064167;28;20056;-65
2022/08/25 02:06:28;;;;;;;11.15;9.95;;;18.40;99.90;;;;;;5064707;28;20040;-65
2022/08/25 02:08:57;;;;;;;11.32;9.63;;;18.40;99.90;;;;;;5057732;28;20044;-65
2022/08/25 02:11:24;;;;;;;10.67;9.60;;;18.30;99.90;;;;;;5054144;28;20048;-64
2022/08/25 02:13:51;;;;;;;14.57;9.02;;;18.40;99.90;;;;;;5072770;28;20396;-65
2022/08/25 02:16:27;;;;;;;10.98;9.55;;;18.40;99.90;;;;;;5060237;28;20048;-65
2022/08/25 02:18:53;;;;;;;9.95;8.95;;;18.40;99.90;;;;;;5057666;28;20040;-64
2022/08/25 02:21:19;;;;;;;16.13;10.30;;;18.40;99.90;;;;;;5058036;28;20049;-65
2022/08/25 02:23:46;;;;;;;10.00;8.65;;;18.40;99.90;;;;;;5075334;28;20047;-64
2022/08/25 02:26:15;;;;;;;8.95;8.05;;;18.40;99.90;;;;;;5078238;28;20068;-65
2022/08/25 02:28:42;;;;;;;13.63;8.98;;;18.40;99.90;;;;;;5051703;28;20051;-65
2022/08/25 02:31:08;;;;;;;10.73;8.00;;;18.40;99.90;;;;;;5075306;28;20079;-65
2022/08/25 02:33:34;;;;;;;10.93;6.70;;;18.50;99.90;;;;;;5057310;28;20060;-65
2022/08/25 02:36:01;;;;;;;9.30;7.05;;;18.50;99.90;;;;;;5076981;28;20108;-65
2022/08/25 02:38:28;;;;;;;8.35;6.70;;;18.60;99.90;;;;;;5053250;28;20054;-65
2022/08/25 02:40:55;;;;;;;8.90;6.85;;;18.60;99.90;;;;;;5076639;28;20054;-65
2022/08/25 02:43:21;;;;;;;11.75;6.63;;;18.60;99.90;;;;;;5063717;28;20413;-65
2022/08/25 02:45:47;;;;;;;7.63;6.63;;;18.70;99.90;;;;;;5078552;28;20124;-64
2022/08/25 02:48:13;;;;;;;9.07;6.43;;;18.70;99.90;;;;;;5073919;28;20056;-65
2022/08/25 02:50:39;;;;;;;10.45;6.82;;;18.80;99.90;;;;;;5075858;28;20113;-65
2022/08/25 02:53:04;;;;;;;9.73;5.78;;;18.80;99.90;;;;;;5078816;28;20088;-64
2022/08/25 02:55:31;;;;;;;8.98;5.82;;;18.90;99.90;;;;;;5078303;28;20109;-65
2022/08/25 02:57:57;;;;;;;12.93;5.65;;;18.90;99.90;;;;;;5074300;28;20044;-64
2022/08/25 03:00:23;;;;;;;9.93;7.28;;;18.90;99.90;;;;;;5078286;28;20048;-65
2022/08/25 03:02:48;;;;;;;8.15;6.07;;;18.90;99.90;;;;;;5076104;28;20036;-65
2022/08/25 03:05:14;;;;;;;6.43;5.82;;;18.90;99.90;;;;;;5077093;28;20071;-65
2022/08/25 03:07:41;;;;;;;6.97;6.28;;;18.80;99.90;;;;;;5073748;28;20120;-64
2022/08/25 03:10:10;;;;;;;8.63;6.07;;;18.80;99.90;;;;;;5077632;28;20071;-65
2022/08/25 03:12:36;;;;;;;10.52;7.20;;;18.70;99.90;;;;;;5073965;28;20409;-65
2022/08/25 03:15:02;;;;;;;11.80;6.80;;;18.70;99.90;;;;;;5076340;28;20041;-65
2022/08/25 03:17:28;;;;;;;9.45;6.90;;;18.70;99.90;;;;;;5054301;28;20045;-65
2022/08/25 03:19:54;;;;;;;9.98;6.03;;;18.70;99.90;;;;;;5071542;28;20032;-65
2022/08/25 03:22:20;;;;;;;9.38;6.80;;;18.70;99.90;;;;;;5051763;28;20156;-65
2022/08/25 03:24:45;;;;;;;11.32;6.40;;;18.70;99.90;;;;;;5077035;28;20040;-65
2022/08/25 03:27:12;;;;;;;8.65;6.63;;;18.60;99.90;;;;;;5056520;28;20040;-64
2022/08/25 03:29:38;;;;;;;9.57;6.20;;;18.60;99.90;;;;;;5077672;28;20056;-64
2022/08/25 03:32:04;;;;;;;7.10;5.60;;;18.60;99.90;;;;;;5055616;28;20080;-64
2022/08/25 03:34:30;;;;;;;9.82;6.57;;;18.60;99.90;;;;;;5059920;28;20060;-65
2022/08/25 03:36:57;;;;;;;9.77;6.68;;;18.50;99.90;;;;;;5057725;28;20100;-65
2022/08/25 03:39:24;;;;;;;9.68;6.80;;;18.50;99.90;;;;;;5071951;28;20071;-65
2022/08/25 03:41:51;;;;;;;8.77;6.55;;;18.50;99.90;;;;;;5059404;28;20401;-64
2022/08/25 03:44:17;;;;;;;10.15;6.78;;;18.50;99.90;;;;;;5057109;28;20048;-65
2022/08/25 03:46:46;;;;;;;9.25;7.18;;;18.50;99.90;;;;;;5040564;28;20063;-65
2022/08/25 03:49:16;;;;;;;94.68;10.80;;;18.50;99.90;;;;;;5056991;28;20048;-65
2022/08/25 03:51:46;;;;;;;25.45;8.27;;;18.50;99.90;;;;;;5056783;28;20041;-64
2022/08/25 03:54:14;;;;;;;18.95;7.35;;;18.40;99.90;;;;;;5048727;28;20044;-65
2022/08/25 03:56:39;;;;;;;12.18;7.03;;;18.30;99.90;;;;;;5035845;28;20057;-65
2022/08/25 03:59:08;;;;;;;10.88;7.18;;;18.30;99.90;;;;;;5039023;28;20080;-65
2022/08/25 04:01:38;;;;;;;7.10;6.38;;;18.30;99.90;;;;;;5066456;28;20055;-65
2022/08/25 04:04:05;;;;;;;8.23;7.03;;;18.30;99.90;;;;;;5059867;28;20051;-68
2022/08/25 04:06:30;;;;;;;8.52;6.82;;;18.30;99.90;;;;;;5058102;28;20084;-68
2022/08/25 04:08:57;;;;;;;12.93;7.05;;;18.30;99.90;;;;;;5078149;28;20088;-66
2022/08/25 04:11:24;;;;;;;7.60;6.45;;;18.30;99.90;;;;;;5063456;28;20052;-66
2022/08/25 04:13:51;;;;;;;12.32;6.82;;;18.30;99.90;;;;;;5065084;28;20044;-67
2022/08/25 04:16:26;;;;;;;8.60;7.55;;;18.30;99.90;;;;;;5058188;28;20045;-66
2022/08/25 04:18:53;;;;;;;9.88;7.60;;;18.20;99.90;;;;;;5051993;28;20045;-67
2022/08/25 04:21:21;;;;;;;7.50;6.70;;;18.20;99.90;;;;;;5045427;28;20565;-67
2022/08/25 04:23:48;;;;;;;9.13;7.10;;;18.30;99.90;;;;;;5047510;28;20040;-67
2022/08/25 04:26:26;;;;;;;10.63;6.85;;;18.30;99.90;;;;;;5069691;28;20042;-67
2022/08/25 04:28:53;;;;;;;13.68;6.50;;;18.30;99.90;;;;;;5082074;28;20040;-67
2022/08/25 04:31:20;;;;;;;10.35;6.82;;;18.40;99.90;;;;;;5057117;28;20083;-67
2022/08/25 04:33:47;;;;;;;9.40;6.35;;;18.40;99.90;;;;;;5062103;28;20127;-67
2022/08/25 04:36:14;;;;;;;8.95;6.95;;;18.40;99.90;;;;;;5051952;28;20057;-67
2022/08/25 04:38:41;;;;;;;11.52;7.10;;;18.40;99.90;;;;;;5066505;28;20082;-67
2022/08/25 04:41:09;;;;;;;12.90;6.53;;;18.40;99.90;;;;;;5043641;28;20081;-67
2022/08/25 04:43:36;;;;;;;10.05;7.10;;;18.40;99.90;;;;;;5070508;28;20047;-67
2022/08/25 04:46:11;;;;;;;11.23;7.65;;;18.40;99.90;;;;;;5040514;28;20102;-67
2022/08/25 04:48:40;;;;;;;9.18;6.75;;;18.40;99.90;;;;;;5056235;28;20038;-67
2022/08/25 04:51:08;;;;;;;10.45;6.72;;;18.30;99.90;;;;;;5050752;28;20053;-67
2022/08/25 04:53:35;;;;;;;9.07;6.75;;;18.40;99.90;;;;;;5055099;28;20138;-67
2022/08/25 04:56:04;;;;;;;8.45;7.05;;;18.40;99.90;;;;;;5035154;28;20045;-67
2022/08/25 04:58:30;;;;;;;9.45;7.13;;;18.40;99.90;;;;;;5061050;28;20041;-67
2022/08/25 05:01:02;;;;;;;8.82;6.88;;;18.40;99.90;;;;;;5036393;28;20042;-67
2022/08/25 05:03:29;;;;;;;8.20;7.40;;;18.40;99.90;;;;;;5045305;28;20057;-67
2022/08/25 05:05:55;;;;;;;11.13;7.32;;;18.40;99.90;;;;;;5058118;28;20045;-66
2022/08/25 05:08:21;;;;;;;10.57;6.70;;;18.40;99.90;;;;;;5045030;28;20053;-67
2022/08/25 05:10:47;;;;;;;11.15;7.50;;;18.40;99.90;;;;;;5034389;28;20049;-66
2022/08/25 05:13:13;;;;;;;14.55;7.30;;;18.50;99.90;;;;;;5029021;28;20048;-67
2022/08/25 05:15:51;;;;;;;8.23;7.32;;;18.50;99.90;;;;;;5034831;28;20795;-68
2022/08/25 05:18:18;;;;;;;11.32;8.05;;;18.50;99.90;;;;;;5042244;28;20535;-66
2022/08/25 05:20:43;;;;;;;15.90;7.60;;;18.50;99.90;;;;;;5048196;28;20055;-66
2022/08/25 05:23:09;;;;;;;11.70;8.80;;;18.50;99.90;;;;;;5039929;28;20076;-66
2022/08/25 05:25:35;;;;;;;10.98;7.60;;;18.50;99.90;;;;;;5030933;28;20044;-66
2022/08/25 05:28:02;;;;;;;13.45;8.55;;;18.60;99.90;;;;;;5009225;28;20055;-65
2022/08/25 05:30:27;;;;;;;13.63;8.43;;;18.60;99.90;;;;;;5035115;28;20541;-67
2022/08/25 05:32:53;;;;;;;9.35;7.82;;;18.60;99.90;;;;;;5011584;28;20557;-66
2022/08/25 05:35:19;;;;;;;12.55;8.18;;;18.60;99.90;;;;;;5010853;28;20133;-66
2022/08/25 05:37:45;;;;;;;8.85;7.93;;;18.60;99.90;;;;;;5010194;28;20041;-66
2022/08/25 05:40:11;;;;;;;10.35;7.75;;;18.70;99.90;;;;;;5022592;28;20045;-66
2022/08/25 05:42:36;;;;;;;11.40;8.02;;;18.70;99.90;;;;;;5023666;28;20054;-66
2022/08/25 05:45:04;;;;;;;10.00;7.75;;;18.70;99.90;;;;;;5015599;28;20042;-66
2022/08/25 05:47:29;;;;;;;12.50;8.93;;;18.80;99.90;;;;;;5031147;28;20367;-66
2022/08/25 05:49:55;;;;;;;10.25;8.52;;;18.80;99.90;;;;;;5039572;28;20049;-66
2022/08/25 05:52:21;;;;;;;11.25;8.13;;;18.80;99.90;;;;;;5012061;28;20088;-66
2022/08/25 05:54:47;;;;;;;10.57;7.95;;;18.80;99.90;;;;;;5037646;28;20085;-66
2022/08/25 05:57:13;;;;;;;12.10;8.38;;;18.90;99.90;;;;;;5031145;28;20045;-66
2022/08/25 05:59:38;;;;;;;14.40;8.68;;;19.00;99.90;;;;;;5077956;28;20106;-67
2022/08/25 06:04:48;;;;;;;14.73;8.48;;;19.00;99.90;;;;;;5037987;28;20102;-66
2022/08/25 06:07:14;;;;;;;10.88;8.85;;;19.00;99.90;;;;;;5050779;28;20164;-67
2022/08/25 06:09:40;;;;;;;10.23;8.68;;;19.00;99.90;;;;;;5045717;28;20056;-66
2022/08/25 06:12:07;;;;;;;13.77;9.15;;;19.10;99.90;;;;;;5050196;28;20054;-66
2022/08/25 06:14:33;;;;;;;13.95;9.63;;;19.10;99.90;;;;;;5041034;28;20053;-67
2022/08/25 06:16:59;;;;;;;11.75;9.05;;;19.20;99.90;;;;;;5048640;28;20173;-66
2022/08/25 06:19:26;;;;;;;13.25;9.10;;;19.30;99.90;;;;;;5029597;28;20057;-66
2022/08/25 06:21:54;;;;;;;14.23;8.57;;;19.30;99.90;;;;;;5041165;28;20049;-66
2022/08/25 06:24:19;;;;;;;14.98;9.98;;;19.30;99.90;;;;;;5040327;28;20575;-66
2022/08/25 06:26:45;;;;;;;14.57;9.82;;;19.40;99.90;;;;;;5050306;28;20045;-66
2022/08/25 06:29:12;;;;;;;14.50;8.75;;;19.40;99.90;;;;;;5035274;28;20393;-68
2022/08/25 06:31:38;;;;;;;16.40;9.52;;;19.50;99.90;;;;;;5046573;28;20056;-65
2022/08/25 06:34:05;;;;;;;11.65;9.20;;;19.60;99.90;;;;;;5042769;28;20072;-65
2022/08/25 06:36:31;;;;;;;11.52;9.40;;;19.60;99.90;;;;;;5042221;28;20108;-64
2022/08/25 06:38:56;;;;;;;10.75;8.63;;;19.70;99.90;;;;;;5043763;28;20049;-65
2022/08/25 06:41:22;;;;;;;11.95;8.95;;;19.70;99.90;;;;;;5044725;28;20055;-65
2022/08/25 06:43:48;;;;;;;15.40;8.98;;;19.80;99.90;;;;;;5039684;28;20551;-65
2022/08/25 06:46:19;;;;;;;11.10;8.77;;;19.90;99.90;;;;;;5074346;28;20068;-65
2022/08/25 06:48:45;;;;;;;11.88;8.65;;;20.00;99.90;;;;;;5032935;28;20060;-66
2022/08/25 06:51:13;;;;;;;13.23;8.48;;;20.10;99.90;;;;;;5062689;28;20117;-65
2022/08/25 06:53:39;;;;;;;13.10;8.45;;;20.10;99.90;;;;;;5039637;28;20103;-65
2022/08/25 06:56:06;;;;;;;10.45;9.45;;;20.20;99.90;;;;;;5040735;28;20087;-64
2022/08/25 06:58:32;;;;;;;12.27;7.90;;;20.20;99.90;;;;;;5044400;28;20758;-64
2022/08/25 07:01:10;;;;;;;13.48;9.57;;;20.30;99.90;;;;;;5041520;28;20541;-66
2022/08/25 07:03:36;;;;;;;9.07;8.18;;;20.40;99.90;;;;;;5015181;28;20079;-65
2022/08/25 07:06:02;;;;;;;11.55;8.20;;;20.40;99.90;;;;;;5043785;28;20040;-65
2022/08/25 07:08:27;;;;;;;13.23;8.43;;;20.50;99.90;;;;;;5054073;28;20056;-64
2022/08/25 07:10:54;;;;;;;11.48;7.78;;;20.50;99.90;;;;;;5034785;28;20101;-65
2022/08/25 07:13:19;;;;;;;10.77;7.65;;;20.60;99.90;;;;;;5022449;28;20053;-65
2022/08/25 07:15:45;;;;;;;11.43;9.00;;;20.60;99.90;;;;;;5026101;28;20052;-65
2022/08/25 07:18:11;;;;;;;11.45;8.07;;;20.70;99.90;;;;;;5016727;28;20072;-65
2022/08/25 07:20:38;;;;;;;10.85;7.28;;;20.80;99.90;;;;;;5028501;28;20041;-66
2022/08/25 07:23:04;;;;;;;12.07;7.75;;;21.00;99.90;;;;;;5032029;28;20053;-65
2022/08/25 07:25:30;;;;;;;9.20;7.68;;;20.90;99.90;;;;;;5031409;28;20072;-65
2022/08/25 07:27:56;;;;;;;12.75;8.45;;;21.00;99.90;;;;;;5018541;28;20049;-64
2022/08/25 07:30:22;;;;;;;11.55;7.60;;;21.00;99.90;;;;;;5060576;28;20045;-65
2022/08/25 07:32:48;;;;;;;13.13;8.63;;;21.20;99.90;;;;;;5017769;28;20139;-65
2022/08/25 07:35:16;;;;;;;11.68;8.07;;;21.20;99.90;;;;;;5046483;28;20045;-65
2022/08/25 07:37:45;;;;;;;11.60;8.25;;;21.30;99.90;;;;;;5036382;28;20046;-65
2022/08/25 07:40:17;;;;;;;14.32;7.95;;;21.50;99.90;;;;;;5051785;28;20361;-65
2022/08/25 07:42:43;;;;;;;12.32;8.02;;;21.50;99.90;;;;;;5012382;28;20041;-65
2022/08/25 07:45:10;;;;;;;10.50;7.68;;;21.60;99.90;;;;;;5026193;28;20041;-66
2022/08/25 07:47:38;;;;;;;9.68;7.55;;;21.60;99.90;;;;;;5029537;28;20041;-64
2022/08/25 07:50:07;;;;;;;9.93;7.47;;;21.70;99.90;;;;;;5051630;28;20049;-65
2022/08/25 07:52:32;;;;;;;11.52;7.75;;;21.80;99.90;;;;;;5018196;28;20053;-67
2022/08/25 07:54:58;;;;;;;11.07;7.13;;;21.90;99.90;;;;;;5033946;28;20535;-65
2022/08/25 07:57:25;;;;;;;10.23;7.45;;;22.00;99.90;;;;;;5031533;28;20049;-64
2022/08/25 07:59:51;;;;;;;9.52;7.28;;;22.00;99.90;;;;;;5062461;28;20065;-65
2022/08/25 08:02:17;;;;;;;14.02;7.38;;;22.10;99.90;;;;;;5018663;28;20453;-65
2022/08/25 08:04:44;;;;;;;13.40;8.07;;;22.10;99.90;;;;;;5025768;28;20153;-66
2022/08/25 08:07:10;;;;;;;10.20;7.30;;;22.20;99.90;;;;;;5017886;28;20050;-65
2022/08/25 08:09:36;;;;;;;12.18;7.38;;;22.30;99.90;;;;;;5033030;28;20056;-65
2022/08/25 08:12:02;;;;;;;7.63;6.78;;;22.50;99.90;;;;;;5033159;28;20091;-64
2022/08/25 08:14:28;;;;;;;13.02;7.30;;;22.50;99.90;;;;;;5023269;28;20045;-64
2022/08/25 08:16:54;;;;;;;11.98;7.72;;;22.60;99.90;;;;;;5051393;28;20047;-65
2022/08/25 08:19:21;;;;;;;9.65;6.68;;;22.70;99.90;;;;;;5023181;28;20084;-64
2022/08/25 08:21:48;;;;;;;12.32;7.47;;;22.70;99.90;;;;;;5007528;28;20095;-65
2022/08/25 08:24:14;;;;;;;9.07;8.18;;;22.80;99.90;;;;;;5026295;28;20658;-64
2022/08/25 08:26:39;;;;;;;10.98;7.10;;;23.00;99.90;;;;;;5046816;28;20048;-65
2022/08/25 08:29:05;;;;;;;11.13;7.07;;;23.10;99.90;;;;;;5026719;28;20041;-65
2022/08/25 08:31:31;;;;;;;10.68;6.63;;;23.10;99.90;;;;;;5033791;28;20134;-65
2022/08/25 08:33:57;;;;;;;13.05;6.80;;;23.10;99.90;;;;;;5024819;28;20523;-64
2022/08/25 08:36:24;;;;;;;9.82;6.88;;;23.20;99.90;;;;;;5029492;28;21245;-64
2022/08/25 08:38:50;;;;;;;12.18;7.22;;;23.30;99.90;;;;;;5016668;28;20084;-64
2022/08/25 08:44:35;;;;;;;10.48;7.30;;;23.40;99.90;;;;;;5041945;28;20096;-65
2022/08/25 08:47:34;;;;;;;14.15;7.78;;;23.50;99.90;;;;;;5041553;28;20045;-64
2022/08/25 08:50:25;;;;;;;11.73;7.00;;;23.60;99.90;;;;;;5045142;28;20051;-64
2022/08/25 08:53:06;;;;;;;10.63;7.60;;;23.70;99.90;;;;;;5007152;28;20398;-65
2022/08/25 08:55:43;;;;;;;8.30;6.35;;;23.70;99.90;;;;;;5013992;28;20058;-64
2022/08/25 08:58:44;;;;;;;14.02;7.00;;;23.80;99.90;;;;;;5016653;28;20068;-64
2022/08/25 09:01:17;;;;;;;13.23;6.95;;;23.90;99.90;;;;;;5039359;28;20055;-65
2022/08/25 09:03:49;;;;;;;12.02;6.47;;;23.90;99.90;;;;;;5017975;28;20056;-64
2022/08/25 09:06:48;;;;;;;11.20;6.45;;;24.00;99.90;;;;;;5026048;28;20149;-65
2022/08/25 09:09:29;;;;;;;10.23;6.00;;;24.10;99.90;;;;;;4995828;28;20073;-64
2022/08/25 09:12:19;;;;;;;8.23;5.60;;;24.30;99.90;;;;;;5003907;28;20208;-64
2022/08/25 09:15:20;;;;;;;9.35;6.00;;;24.40;99.90;;;;;;4992892;28;20058;-65
2022/08/25 09:18:09;;;;;;;10.75;6.45;;;24.50;99.90;;;;;;4998130;28;20797;-64
2022/08/25 09:20:41;;;;;;;8.40;5.70;;;24.60;99.90;;;;;;4974507;28;20050;-64
2022/08/25 09:23:34;;;;;;;7.28;5.10;;;24.60;99.90;;;;;;4991809;28;20078;-65
2022/08/25 09:26:16;;;;;;;7.03;4.80;;;24.70;99.90;;;;;;4989524;28;20565;-64
2022/08/25 09:28:53;;;;;;;6.63;5.05;;;24.80;99.90;;;;;;4995413;28;20060;-64
2022/08/25 09:31:30;;;;;;;8.70;5.78;;;24.90;99.90;;;;;;5000828;28;20116;-65
2022/08/25 09:33:59;;;;;;;6.57;4.88;;;24.90;99.90;;;;;;4991655;28;20054;-64
2022/08/25 09:36:25;;;;;;;7.22;4.70;;;25.00;99.90;;;;;;4998250;28;20500;-65
2022/08/25 09:38:52;;;;;;;8.57;5.03;;;25.10;99.90;;;;;;4990229;28;20054;-65
2022/08/25 09:41:40;;;;;;;16.05;5.53;;;25.20;99.90;;;;;;4999546;28;20061;-65
2022/08/25 09:44:17;;;;;;;9.13;4.25;;;25.30;99.90;;;;;;4996087;28;20453;-64
2022/08/25 09:46:54;;;;;;;7.53;4.75;;;25.40;99.90;;;;;;5022901;28;20048;-64
2022/08/25 09:49:20;;;;;;;9.13;4.75;;;25.50;99.90;;;;;;5023132;28;20081;-65
2022/08/25 09:51:46;;;;;;;8.88;4.80;;;25.60;99.90;;;;;;5008052;28;20080;-64
2022/08/25 09:54:11;;;;;;;7.47;4.40;;;25.70;99.90;;;;;;5034111;28;20053;-65
2022/08/25 09:56:48;;;;;;;5.43;3.75;;;25.80;99.90;;;;;;5037288;28;20056;-65
2022/08/25 09:59:24;;;;;;;8.20;4.60;;;25.90;99.90;;;;;;5041641;28;20079;-65
2022/08/25 10:02:04;;;;;;;7.63;4.25;;;25.90;99.90;;;;;;5076460;28;20045;-64
2022/08/25 10:04:38;;;;;;;8.30;4.15;;;26.00;99.90;;;;;;5040106;28;20048;-64
2022/08/25 10:07:31;;;;;;;13.30;4.60;;;26.00;99.90;;;;;;5064998;28;20046;-65
2022/08/25 10:10:00;;;;;;;8.20;4.25;;;26.10;99.90;;;;;;5016869;28;20041;-64
2022/08/25 10:12:35;;;;;;;7.45;4.40;;;26.20;99.90;;;;;;5040816;28;20080;-64
2022/08/25 10:15:26;;;;;;;6.82;3.70;;;26.20;99.90;;;;;;5032701;28;20056;-64
2022/08/25 10:17:53;;;;;;;6.85;4.20;;;26.30;99.80;;;;;;5060081;28;20099;-64
2022/08/25 10:20:21;;;;;;;9.30;4.18;;;26.30;99.90;;;;;;5065551;28;20460;-63
2022/08/25 10:22:49;;;;;;;5.53;4.10;;;26.50;99.50;;;;;;5041415;28;20680;-64
2022/08/25 10:25:20;;;;;;;7.25;3.58;;;26.50;99.40;;;;;;5068933;28;20060;-64
2022/08/25 10:28:11;;;;;;;7.85;3.92;;;26.60;99.20;;;;;;5041589;28;20224;-64
2022/08/25 10:31:00;;;;;;;7.65;4.30;;;26.80;98.40;;;;;;5065999;28;20048;-64
2022/08/25 10:33:41;;;;;;;8.10;4.50;;;26.80;98.70;;;;;;5053778;28;20091;-64
2022/08/25 10:36:17;;;;;;;7.40;4.20;;;26.80;99.40;;;;;;5035271;28;20049;-65
2022/08/25 10:38:56;;;;;;;6.30;4.05;;;26.90;99.20;;;;;;5030981;28;20049;-64
2022/08/25 10:41:48;;;;;;;8.27;4.53;;;26.90;98.70;;;;;;5042575;28;20497;-64
2022/08/25 10:47:43;;;;;;;6.90;3.92;;;27.00;98.10;;;;;;5063524;28;20487;-64
2022/08/25 10:50:17;;;;;;;7.35;4.18;;;27.10;98.30;;;;;;5069027;28;20472;-64
2022/08/25 10:53:16;;;;;;;6.93;4.18;;;27.10;98.30;;;;;;5045294;28;20520;-63
2022/08/25 10:55:48;;;;;;;8.40;4.32;;;27.20;97.70;;;;;;5044834;28;20037;-64
2022/08/25 10:58:21;;;;;;;8.15;4.28;;;27.10;98.60;;;;;;5060122;28;20051;-64
2022/08/25 11:01:18;;;;;;;9.30;4.38;;;27.20;98.60;;;;;;5015322;28;20048;-64
2022/08/25 11:04:10;;;;;;;6.97;3.95;;;27.30;99.00;;;;;;5039812;28;20060;-63
2022/08/25 11:07:14;;;;;;;8.32;4.97;;;27.40;97.90;;;;;;5045493;28;20320;-63
2022/08/25 11:09:43;;;;;;;7.30;4.40;;;27.50;98.30;;;;;;4953666;28;20492;-64
2022/08/25 11:12:11;;;;;;;;;;;27.60;97.50;;;;;;4979856;28;20610;-64
2022/08/25 11:14:48;;;;;;;5.80;3.92;;;27.70;97.50;;;;;;4983466;28;19925;-64
2022/08/25 11:17:13;;;;;;;9.30;4.40;;;27.70;97.70;;;;;;4966743;28;20337;-64
2022/08/25 11:19:44;;;;;;;6.88;4.45;;;27.70;96.90;;;;;;4972525;28;20553;-64
2022/08/25 11:22:30;;;;;;;7.20;4.53;;;27.80;97.00;;;;;;4994542;28;20287;-64
2022/08/25 11:25:24;;;;;;;9.00;3.70;;;27.90;97.20;;;;;;4995615;28;20118;-64
2022/08/25 11:28:25;;;;;;;8.50;4.00;;;28.00;96.20;;;;;;4963996;28;20502;-64
2022/08/25 11:30:52;;;;;;;6.15;3.92;;;28.10;95.30;;;;;;4991850;28;20050;-64
2022/08/25 11:33:18;;;;;;;7.25;4.43;;;28.20;95.20;;;;;;4968810;28;20089;-64
2022/08/25 11:35:52;;;;;;;9.40;4.30;;;28.20;95.20;;;;;;4994703;28;20073;-64
2022/08/25 11:38:24;;;;;;;11.10;4.88;;;28.20;94.60;;;;;;4981599;28;20109;-64
2022/08/25 11:41:04;;;;;;;8.70;3.53;;;28.20;95.60;;;;;;4995339;28;20186;-65
2022/08/25 11:43:55;;;;;;;11.15;4.25;;;28.20;95.50;;;;;;5005727;28;20516;-68
2022/08/25 11:46:45;;;;;;;7.28;3.97;;;28.40;94.80;;;;;;5073207;28;20072;-65
2022/08/25 11:49:20;;;;;;;5.00;3.90;;;28.40;94.60;;;;;;5040567;28;20048;-65
2022/08/25 11:51:47;;;;;;;5.43;3.42;;;28.50;94.50;;;;;;5048348;28;20052;-65
2022/08/25 11:54:18;;;;;;;7.63;3.70;;;28.50;94.10;;;;;;5038202;28;20045;-65
2022/08/25 11:56:52;;;;;;;7.95;4.13;;;28.50;93.50;;;;;;5035489;28;20053;-65
2022/08/25 11:59:48;;;;;;;7.72;3.85;;;28.50;94.20;;;;;;5037072;28;20052;-64
2022/08/25 12:02:43;;;;;;;7.15;4.00;;;28.60;94.70;;;;;;5048458;28;20052;-64
2022/08/25 12:05:20;;;;;;;4.68;4.05;;;28.70;93.90;;;;;;5037709;28;20112;-65
2022/08/25 12:07:50;;;;;;;8.23;4.28;;;28.70;95.00;;;;;;5062508;28;20079;-64
2022/08/25 12:10:24;;;;;;;5.10;4.10;;;28.70;94.20;;;;;;5024643;28;20053;-64
2022/08/25 12:13:21;;;;;;;7.22;4.03;;;28.80;93.60;;;;;;5069059;28;20123;-64
2022/08/25 12:15:47;;;;;;;6.93;3.80;;;28.90;93.40;;;;;;5075586;28;20060;-63
2022/08/25 12:18:21;;;;;;;8.75;3.88;;;28.90;92.60;;;;;;5067159;28;20041;-63
2022/08/25 12:20:53;;;;;;;6.22;4.07;;;28.90;92.60;;;;;;5049026;28;20106;-67
2022/08/25 12:23:43;;;;;;;6.60;3.80;;;28.90;93.30;;;;;;5055352;28;20236;-67
2022/08/25 12:26:29;;;;;;;8.30;4.40;;;29.00;93.40;;;;;;5022483;28;20057;-66
2022/08/25 12:29:26;;;;;;;5.75;4.88;;;29.20;93.60;;;;;;5048765;28;20079;-67
2022/08/25 12:32:13;;;;;;;5.93;4.13;;;29.30;92.60;;;;;;5055924;28;20115;-66
2022/08/25 12:34:57;;;;;;;8.00;4.57;;;29.20;93.30;;;;;;5031492;28;20081;-66
2022/08/25 12:37:24;;;;;;;13.18;4.47;;;29.30;93.50;;;;;;5057494;28;20474;-66
2022/08/25 12:39:50;;;;;;;7.80;3.90;;;29.40;93.80;;;;;;5050288;28;20101;-67
2022/08/25 12:42:28;;;;;;;6.00;3.97;;;29.40;92.90;;;;;;5058730;28;20049;-66
2022/08/25 12:45:30;;;;;;;5.72;3.85;;;29.60;91.90;;;;;;5038841;28;20049;-66
2022/08/25 12:48:25;;;;;;;4.47;3.97;;;29.70;91.10;;;;;;5039876;28;20127;-68
2022/08/25 12:51:07;;;;;;;7.13;4.07;;;29.70;91.70;;;;;;5042771;28;20083;-65
2022/08/25 12:53:35;;;;;;;5.43;3.92;;;29.70;91.70;;;;;;5037358;28;20056;-65
2022/08/25 12:56:17;;;;;;;8.57;4.10;;;29.70;92.10;;;;;;5025164;28;20388;-65
2022/08/25 12:59:11;;;;;;;7.47;3.50;;;29.70;92.20;;;;;;5021777;28;20037;-64
2022/08/25 13:01:56;;;;;;;7.93;4.30;;;30.00;90.30;;;;;;5003570;28;20049;-63
2022/08/25 13:04:52;;;;;;;8.02;3.75;;;29.90;90.30;;;;;;5011398;28;20359;-63
2022/08/25 13:08:12;;;;;;;7.97;4.18;;;30.00;90.20;;;;;;5020195;28;20117;-63
2022/08/25 13:11:00;;;;;;;4.60;4.15;;;30.00;91.10;;;;;;4947171;28;20145;-63
2022/08/25 13:13:46;;;;;;;6.60;3.97;;;30.00;91.00;;;;;;4978217;28;20112;-63
2022/08/25 13:16:19;;;;;;;5.57;4.03;;;30.40;89.70;;;;;;4969558;28;20054;-63